sensor_id;sensor_type;location;lat;lon;timestamp;temperature;humidity
37378;DHT22;23248;48.120;14.854;2022-09-23T00:00:42;6.00;99.90
37378;DHT22;23248;48.120;14.854;2022-09-23T00:03:09;6.00;99.90
37378;DHT22;23248;48.120;14.854;2022-09-23T00:05:35;6.00;99.90
37378;DHT22;23248;48.120;14.854;2022-09-23T00:08:03;6.00;99.90
37378;DHT22;23248;48.120;14.854;2022-09-23T00:10:30;6.00;99.90
37378;DHT22;23248;48.120;14.854;2022-09-23T00:12:56;6.00;99.90
37378;DHT22;23248;48.120;14.854;2022-09-23T00:15:22;6.00;99.90
37378;DHT22;23248;48.120;14.854;2022-09-23T00:17:50;6.00;99.90
37378;DHT22;23248;48.120;14.854;2022-09-23T00:20:16;6.00;99.90
37378;DHT22;23248;48.120;14.854;2022-09-23T00:22:42;6.10;99.90
37378;DHT22;23248;48.120;14.854;2022-09-23T00:25:10;6.30;99.90
37378;DHT22;23248;48.120;14.854;2022-09-23T00:27:37;6.40;99.90
37378;DHT22;23248;48.120;14.854;2022-09-23T00:30:05;6.40;99.90
37378;DHT22;23248;48.120;14.854;2022-09-23T00:32:33;6.40;99.90
37378;DHT22;23248;48.120;14.854;2022-09-23T00:34:59;6.40;99.90
37378;DHT22;23248;48.120;14.854;2022-09-23T00:37:26;6.40;99.90
37378;DHT22;23248;48.120;14.854;2022-09-23T00:39:52;6.50;99.90
37378;DHT22;23248;48.120;14.854;2022-09-23T00:42:20;6.50;99.90
37378;DHT22;23248;48.120;14.854;2022-09-23T00:50:20;6.80;99.90
37378;DHT22;23248;48.120;14.854;2022-09-23T00:52:47;6.80;99.90
37378;DHT22;23248;48.120;14.854;2022-09-23T00:55:17;6.70;99.90
37378;DHT22;23248;48.120;14.854;2022-09-23T00:57:43;6.80;99.90
37378;DHT22;23248;48.120;14.854;2022-09-23T01:00:10;6.70;99.90
37378;DHT22;23248;48.120;14.854;2022-09-23T01:02:36;6.70;99.90
37378;DHT22;23248;48.120;14.854;2022-09-23T01:05:04;6.80;99.90
37378;DHT22;23248;48.120;14.854;2022-09-23T01:07:30;6.70;99.90
37378;DHT22;23248;48.120;14.854;2022-09-23T01:09:56;6.60;99.90
37378;DHT22;23248;48.120;14.854;2022-09-23T01:12:25;6.60;99.90
37378;DHT22;23248;48.120;14.854;2022-09-23T01:15:13;6.50;99.90
37378;DHT22;23248;48.120;14.854;2022-09-23T01:30:39;6.20;99.90
37378;DHT22;23248;48.120;14.854;2022-09-23T01:46:19;6.40;99.90
37378;DHT22;23248;48.120;14.854;2022-09-23T01:48:48;6.40;99.90
37378;DHT22;23248;48.120;14.854;2022-09-23T01:51:19;6.40;99.90
37378;DHT22;23248;48.120;14.854;2022-09-23T01:53:50;6.40;99.90
37378;DHT22;23248;48.120;14.854;2022-09-23T01:56:21;6.50;99.90
37378;DHT22;23248;48.120;14.854;2022-09-23T02:01:38;6.40;99.90
37378;DHT22;23248;48.120;14.854;2022-09-23T02:04:08;6.50;99.90
37378;DHT22;23248;48.120;14.854;2022-09-23T02:06:38;6.50;99.90
37378;DHT22;23248;48.120;14.854;2022-09-23T02:09:08;6.60;99.90
37378;DHT22;23248;48.120;14.854;2022-09-23T02:11:35;6.50;99.90
37378;DHT22;23248;48.120;14.854;2022-09-23T02:14:03;6.50;99.90
37378;DHT22;23248;48.120;14.854;2022-09-23T02:16:32;6.40;99.90
37378;DHT22;23248;48.120;14.854;2022-09-23T02:19:00;6.40;99.90
37378;DHT22;23248;48.120;14.854;2022-09-23T02:21:33;6.40;99.90
37378;DHT22;23248;48.120;14.854;2022-09-23T02:24:09;6.40;99.90
37378;DHT22;23248;48.120;14.854;2022-09-23T02:31:37;6.40;99.90
37378;DHT22;23248;48.120;14.854;2022-09-23T02:34:23;6.40;99.90
37378;DHT22;23248;48.120;14.854;2022-09-23T02:39:40;6.50;99.90
37378;DHT22;23248;48.120;14.854;2022-09-23T02:42:08;6.40;99.90
37378;DHT22;23248;48.120;14.854;2022-09-23T02:44:37;6.40;99.90
37378;DHT22;23248;48.120;14.854;2022-09-23T02:47:03;6.40;99.90
37378;DHT22;23248;48.120;14.854;2022-09-23T02:49:29;6.40;99.90
37378;DHT22;23248;48.120;14.854;2022-09-23T02:51:55;6.40;99.90
37378;DHT22;23248;48.120;14.854;2022-09-23T02:54:23;6.30;99.90
37378;DHT22;23248;48.120;14.854;2022-09-23T02:56:48;6.30;99.90
37378;DHT22;23248;48.120;14.854;2022-09-23T02:59:14;6.30;99.90
37378;DHT22;23248;48.120;14.854;2022-09-23T03:04:13;6.30;99.90
37378;DHT22;23248;48.120;14.854;2022-09-23T03:09:18;6.20;99.90
37378;DHT22;23248;48.120;14.854;2022-09-23T03:11:51;6.10;99.90
37378;DHT22;23248;48.120;14.854;2022-09-23T03:17:29;6.10;99.90
37378;DHT22;23248;48.120;14.854;2022-09-23T03:20:02;6.00;99.90
37378;DHT22;23248;48.120;14.854;2022-09-23T03:22:37;6.10;99.90
37378;DHT22;23248;48.120;14.854;2022-09-23T03:25:05;6.00;99.90
37378;DHT22;23248;48.120;14.854;2022-09-23T03:27:31;6.10;99.90
37378;DHT22;23248;48.120;14.854;2022-09-23T03:29:59;6.10;99.90
37378;DHT22;23248;48.120;14.854;2022-09-23T03:32:27;6.10;99.90
37378;DHT22;23248;48.120;14.854;2022-09-23T03:34:56;5.90;99.90
37378;DHT22;23248;48.120;14.854;2022-09-23T03:37:38;5.80;99.90
37378;DHT22;23248;48.120;14.854;2022-09-23T03:42:44;5.80;99.90
37378;DHT22;23248;48.120;14.854;2022-09-23T03:45:20;5.80;99.90
37378;DHT22;23248;48.120;14.854;2022-09-23T03:47:46;5.80;99.90
37378;DHT22;23248;48.120;14.854;2022-09-23T03:50:13;5.80;99.90
37378;DHT22;23248;48.120;14.854;2022-09-23T03:52:41;5.70;99.90
37378;DHT22;23248;48.120;14.854;2022-09-23T03:55:08;5.70;99.90
37378;DHT22;23248;48.120;14.854;2022-09-23T03:57:35;5.80;99.90
37378;DHT22;23248;48.120;14.854;2022-09-23T04:00:01;5.80;99.90
37378;DHT22;23248;48.120;14.854;2022-09-23T04:02:26;5.80;99.90
37378;DHT22;23248;48.120;14.854;2022-09-23T04:04:52;5.80;99.90
37378;DHT22;23248;48.120;14.854;2022-09-23T04:07:19;5.70;99.90
37378;DHT22;23248;48.120;14.854;2022-09-23T04:09:44;5.70;99.90
37378;DHT22;23248;48.120;14.854;2022-09-23T04:12:13;5.70;99.90
37378;DHT22;23248;48.120;14.854;2022-09-23T04:14:39;5.60;99.90
37378;DHT22;23248;48.120;14.854;2022-09-23T04:17:05;5.50;99.90
37378;DHT22;23248;48.120;14.854;2022-09-23T04:19:31;5.60;99.90
37378;DHT22;23248;48.120;14.854;2022-09-23T04:21:57;5.60;99.90
37378;DHT22;23248;48.120;14.854;2022-09-23T04:24:22;5.60;99.90
37378;DHT22;23248;48.120;14.854;2022-09-23T04:26:53;5.60;99.90
37378;DHT22;23248;48.120;14.854;2022-09-23T04:29:19;5.60;99.90
37378;DHT22;23248;48.120;14.854;2022-09-23T04:31:46;5.50;99.90
37378;DHT22;23248;48.120;14.854;2022-09-23T04:34:12;5.50;99.90
37378;DHT22;23248;48.120;14.854;2022-09-23T04:36:40;5.60;99.90
37378;DHT22;23248;48.120;14.854;2022-09-23T04:39:06;5.60;99.90
37378;DHT22;23248;48.120;14.854;2022-09-23T04:41:32;5.60;99.90
37378;DHT22;23248;48.120;14.854;2022-09-23T04:43:57;5.60;99.90
37378;DHT22;23248;48.120;14.854;2022-09-23T04:46:23;5.50;99.90
37378;DHT22;23248;48.120;14.854;2022-09-23T04:48:49;5.50;99.90
37378;DHT22;23248;48.120;14.854;2022-09-23T04:51:19;5.40;99.90
37378;DHT22;23248;48.120;14.854;2022-09-23T04:53:47;5.40;99.90
37378;DHT22;23248;48.120;14.854;2022-09-23T04:56:19;5.40;99.90
37378;DHT22;23248;48.120;14.854;2022-09-23T04:58:45;5.50;99.90
37378;DHT22;23248;48.120;14.854;2022-09-23T05:01:15;5.40;99.90
37378;DHT22;23248;48.120;14.854;2022-09-23T05:03:42;5.50;99.90
37378;DHT22;23248;48.120;14.854;2022-09-23T05:06:08;5.40;99.90
37378;DHT22;23248;48.120;14.854;2022-09-23T05:08:34;5.40;99.90
37378;DHT22;23248;48.120;14.854;2022-09-23T05:11:02;5.40;99.90
37378;DHT22;23248;48.120;14.854;2022-09-23T05:13:31;5.50;99.90
37378;DHT22;23248;48.120;14.854;2022-09-23T05:16:02;5.50;99.90
37378;DHT22;23248;48.120;14.854;2022-09-23T05:18:33;5.60;99.90
37378;DHT22;23248;48.120;14.854;2022-09-23T05:20:59;5.70;99.90
37378;DHT22;23248;48.120;14.854;2022-09-23T05:23:24;5.70;99.90
37378;DHT22;23248;48.120;14.854;2022-09-23T05:25:59;5.80;99.90
37378;DHT22;23248;48.120;14.854;2022-09-23T05:28:26;5.80;99.90
37378;DHT22;23248;48.120;14.854;2022-09-23T05:31:04;5.80;99.90
37378;DHT22;23248;48.120;14.854;2022-09-23T05:33:31;5.70;99.90
37378;DHT22;23248;48.120;14.854;2022-09-23T05:35:57;5.70;99.90
37378;DHT22;23248;48.120;14.854;2022-09-23T05:38:23;5.80;99.90
37378;DHT22;23248;48.120;14.854;2022-09-23T05:41:03;5.80;99.90
37378;DHT22;23248;48.120;14.854;2022-09-23T05:43:29;5.80;99.90
37378;DHT22;23248;48.120;14.854;2022-09-23T05:46:09;5.80;99.90
37378;DHT22;23248;48.120;14.854;2022-09-23T05:48:36;5.80;99.90
37378;DHT22;23248;48.120;14.854;2022-09-23T05:51:02;5.90;99.90
37378;DHT22;23248;48.120;14.854;2022-09-23T05:53:29;6.00;99.90
37378;DHT22;23248;48.120;14.854;2022-09-23T05:55:56;6.00;99.90
37378;DHT22;23248;48.120;14.854;2022-09-23T05:58:22;6.00;99.90
37378;DHT22;23248;48.120;14.854;2022-09-23T06:00:49;6.00;99.90
37378;DHT22;23248;48.120;14.854;2022-09-23T06:03:17;6.00;99.90
37378;DHT22;23248;48.120;14.854;2022-09-23T06:05:44;6.10;99.90
37378;DHT22;23248;48.120;14.854;2022-09-23T06:08:10;6.10;99.90
37378;DHT22;23248;48.120;14.854;2022-09-23T06:10:41;6.10;99.90
37378;DHT22;23248;48.120;14.854;2022-09-23T06:13:08;6.20;99.90
37378;DHT22;23248;48.120;14.854;2022-09-23T06:15:34;6.20;99.90
37378;DHT22;23248;48.120;14.854;2022-09-23T06:18:01;6.20;99.90
37378;DHT22;23248;48.120;14.854;2022-09-23T06:20:27;6.30;99.90
37378;DHT22;23248;48.120;14.854;2022-09-23T06:22:53;6.30;99.90
37378;DHT22;23248;48.120;14.854;2022-09-23T06:25:19;6.30;99.90
37378;DHT22;23248;48.120;14.854;2022-09-23T06:27:54;6.20;99.90
37378;DHT22;23248;48.120;14.854;2022-09-23T06:30:21;6.20;99.90
37378;DHT22;23248;48.120;14.854;2022-09-23T06:32:52;6.30;99.90
37378;DHT22;23248;48.120;14.854;2022-09-23T06:35:20;6.30;99.90
37378;DHT22;23248;48.120;14.854;2022-09-23T06:37:47;6.30;99.90
37378;DHT22;23248;48.120;14.854;2022-09-23T06:40:14;6.40;99.90
37378;DHT22;23248;48.120;14.854;2022-09-23T06:42:40;6.40;99.90
37378;DHT22;23248;48.120;14.854;2022-09-23T06:45:07;6.40;99.90
37378;DHT22;23248;48.120;14.854;2022-09-23T06:47:39;6.50;99.90
37378;DHT22;23248;48.120;14.854;2022-09-23T06:50:06;6.50;99.90
37378;DHT22;23248;48.120;14.854;2022-09-23T06:52:32;6.50;99.90
37378;DHT22;23248;48.120;14.854;2022-09-23T06:54:57;6.50;99.90
37378;DHT22;23248;48.120;14.854;2022-09-23T06:57:23;6.60;99.90
37378;DHT22;23248;48.120;14.854;2022-09-23T06:59:48;6.70;99.90
37378;DHT22;23248;48.120;14.854;2022-09-23T07:02:14;6.80;99.90
37378;DHT22;23248;48.120;14.854;2022-09-23T07:04:40;6.90;99.90
37378;DHT22;23248;48.120;14.854;2022-09-23T07:07:05;7.00;99.90
37378;DHT22;23248;48.120;14.854;2022-09-23T07:09:31;7.10;99.90
37378;DHT22;23248;48.120;14.854;2022-09-23T07:11:57;7.20;99.90
37378;DHT22;23248;48.120;14.854;2022-09-23T07:14:22;7.30;99.90
37378;DHT22;23248;48.120;14.854;2022-09-23T07:16:48;7.40;99.90
37378;DHT22;23248;48.120;14.854;2022-09-23T07:19:13;7.40;99.90
37378;DHT22;23248;48.120;14.854;2022-09-23T07:21:39;7.40;99.90
37378;DHT22;23248;48.120;14.854;2022-09-23T07:24:05;7.40;99.90
37378;DHT22;23248;48.120;14.854;2022-09-23T07:26:32;7.40;99.90
37378;DHT22;23248;48.120;14.854;2022-09-23T07:29:00;7.40;99.90
37378;DHT22;23248;48.120;14.854;2022-09-23T07:31:33;7.40;99.90
37378;DHT22;23248;48.120;14.854;2022-09-23T07:34:00;7.50;99.90
37378;DHT22;23248;48.120;14.854;2022-09-23T07:36:26;7.50;99.90
37378;DHT22;23248;48.120;14.854;2022-09-23T07:38:52;7.50;99.90
37378;DHT22;23248;48.120;14.854;2022-09-23T07:41:19;7.70;99.90
37378;DHT22;23248;48.120;14.854;2022-09-23T07:43:45;8.00;99.90
37378;DHT22;23248;48.120;14.854;2022-09-23T07:46:13;8.10;99.90
37378;DHT22;23248;48.120;14.854;2022-09-23T07:48:40;8.20;99.90
37378;DHT22;23248;48.120;14.854;2022-09-23T07:51:09;8.40;99.90
37378;DHT22;23248;48.120;14.854;2022-09-23T07:53:35;8.60;99.90
37378;DHT22;23248;48.120;14.854;2022-09-23T07:56:01;8.80;99.90
37378;DHT22;23248;48.120;14.854;2022-09-23T07:58:30;8.90;99.90
37378;DHT22;23248;48.120;14.854;2022-09-23T08:01:05;9.10;99.90
37378;DHT22;23248;48.120;14.854;2022-09-23T08:03:32;9.20;99.90
37378;DHT22;23248;48.120;14.854;2022-09-23T08:06:04;9.30;99.90
37378;DHT22;23248;48.120;14.854;2022-09-23T08:08:30;9.40;99.90
37378;DHT22;23248;48.120;14.854;2022-09-23T08:11:03;9.40;99.90
37378;DHT22;23248;48.120;14.854;2022-09-23T08:13:31;9.60;99.90
37378;DHT22;23248;48.120;14.854;2022-09-23T08:15:57;9.70;99.90
37378;DHT22;23248;48.120;14.854;2022-09-23T08:18:22;9.90;99.90
37378;DHT22;23248;48.120;14.854;2022-09-23T08:20:48;10.20;99.90
37378;DHT22;23248;48.120;14.854;2022-09-23T08:23:15;10.20;99.90
37378;DHT22;23248;48.120;14.854;2022-09-23T08:25:42;10.30;99.90
37378;DHT22;23248;48.120;14.854;2022-09-23T08:28:07;10.50;99.90
37378;DHT22;23248;48.120;14.854;2022-09-23T08:30:33;10.60;99.90
37378;DHT22;23248;48.120;14.854;2022-09-23T08:32:59;10.80;99.90
37378;DHT22;23248;48.120;14.854;2022-09-23T08:35:25;11.00;99.90
37378;DHT22;23248;48.120;14.854;2022-09-23T08:37:50;11.10;99.90
37378;DHT22;23248;48.120;14.854;2022-09-23T08:40:16;11.20;99.90
37378;DHT22;23248;48.120;14.854;2022-09-23T08:42:43;11.30;99.90
37378;DHT22;23248;48.120;14.854;2022-09-23T08:45:19;11.40;99.90
37378;DHT22;23248;48.120;14.854;2022-09-23T08:48:00;11.40;99.90
37378;DHT22;23248;48.120;14.854;2022-09-23T08:50:34;11.60;99.90
37378;DHT22;23248;48.120;14.854;2022-09-23T08:53:06;11.80;99.90
37378;DHT22;23248;48.120;14.854;2022-09-23T08:55:40;12.00;99.90
37378;DHT22;23248;48.120;14.854;2022-09-23T09:03:57;12.30;99.90
37378;DHT22;23248;48.120;14.854;2022-09-23T09:08:56;12.80;99.90
37378;DHT22;23248;48.120;14.854;2022-09-23T09:11:25;13.00;99.90
37378;DHT22;23248;48.120;14.854;2022-09-23T09:14:00;13.10;99.90
37378;DHT22;23248;48.120;14.854;2022-09-23T09:19:07;13.30;99.90
37378;DHT22;23248;48.120;14.854;2022-09-23T09:21:38;13.30;99.90
37378;DHT22;23248;48.120;14.854;2022-09-23T09:24:17;13.40;99.90
37378;DHT22;23248;48.120;14.854;2022-09-23T09:26:44;13.50;99.90
37378;DHT22;23248;48.120;14.854;2022-09-23T09:29:10;13.70;99.90
37378;DHT22;23248;48.120;14.854;2022-09-23T09:31:47;13.70;99.90
37378;DHT22;23248;48.120;14.854;2022-09-23T09:39:09;14.10;99.90
37378;DHT22;23248;48.120;14.854;2022-09-23T09:41:35;14.00;99.90
37378;DHT22;23248;48.120;14.854;2022-09-23T09:44:01;14.10;99.90
37378;DHT22;23248;48.120;14.854;2022-09-23T09:49:11;14.30;99.90
37378;DHT22;23248;48.120;14.854;2022-09-23T09:51:38;14.50;99.90
37378;DHT22;23248;48.120;14.854;2022-09-23T09:54:24;14.60;99.90
37378;DHT22;23248;48.120;14.854;2022-09-23T09:56:51;14.50;99.90
37378;DHT22;23248;48.120;14.854;2022-09-23T09:59:18;14.60;99.90
37378;DHT22;23248;48.120;14.854;2022-09-23T10:01:47;14.80;99.90
37378;DHT22;23248;48.120;14.854;2022-09-23T10:04:19;14.90;99.90
37378;DHT22;23248;48.120;14.854;2022-09-23T10:09:31;15.00;99.90
37378;DHT22;23248;48.120;14.854;2022-09-23T10:12:02;15.10;99.90
37378;DHT22;23248;48.120;14.854;2022-09-23T10:14:28;15.20;99.90
37378;DHT22;23248;48.120;14.854;2022-09-23T10:17:04;15.40;99.90
37378;DHT22;23248;48.120;14.854;2022-09-23T10:19:30;15.40;99.90
37378;DHT22;23248;48.120;14.854;2022-09-23T10:22:00;15.60;99.90
37378;DHT22;23248;48.120;14.854;2022-09-23T10:24:28;15.70;99.90
37378;DHT22;23248;48.120;14.854;2022-09-23T10:26:56;15.80;99.90
37378;DHT22;23248;48.120;14.854;2022-09-23T10:31:48;16.00;99.90
37378;DHT22;23248;48.120;14.854;2022-09-23T10:34:21;16.00;99.90
37378;DHT22;23248;48.120;14.854;2022-09-23T10:36:53;16.20;99.90
37378;DHT22;23248;48.120;14.854;2022-09-23T10:39:19;16.20;99.90
37378;DHT22;23248;48.120;14.854;2022-09-23T10:48:35;16.40;99.90
37378;DHT22;23248;48.120;14.854;2022-09-23T10:50:40;16.50;99.90
37378;DHT22;23248;48.120;14.854;2022-09-23T10:55:36;16.80;99.90
37378;DHT22;23248;48.120;14.854;2022-09-23T11:06:24;17.20;99.90
37378;DHT22;23248;48.120;14.854;2022-09-23T11:08:59;17.30;99.90
37378;DHT22;23248;48.120;14.854;2022-09-23T11:14:15;17.50;99.90
37378;DHT22;23248;48.120;14.854;2022-09-23T11:16:48;17.60;99.90
37378;DHT22;23248;48.120;14.854;2022-09-23T11:22:14;17.90;99.90
37378;DHT22;23248;48.120;14.854;2022-09-23T11:24:52;17.90;99.90
37378;DHT22;23248;48.120;14.854;2022-09-23T11:29:54;18.10;99.90
37378;DHT22;23248;48.120;14.854;2022-09-23T11:35:12;18.30;99.90
37378;DHT22;23248;48.120;14.854;2022-09-23T11:37:44;18.20;99.90
37378;DHT22;23248;48.120;14.854;2022-09-23T11:40:16;18.20;99.90
37378;DHT22;23248;48.120;14.854;2022-09-23T11:42:52;18.20;99.90
37378;DHT22;23248;48.120;14.854;2022-09-23T11:45:20;18.30;99.90
37378;DHT22;23248;48.120;14.854;2022-09-23T11:47:49;18.50;99.90
37378;DHT22;23248;48.120;14.854;2022-09-23T11:50:34;18.60;99.90
37378;DHT22;23248;48.120;14.854;2022-09-23T11:53:02;18.50;99.90
37378;DHT22;23248;48.120;14.854;2022-09-23T11:55:38;18.50;99.90
37378;DHT22;23248;48.120;14.854;2022-09-23T11:58:08;18.70;99.90
37378;DHT22;23248;48.120;14.854;2022-09-23T12:00:36;18.80;98.60
37378;DHT22;23248;48.120;14.854;2022-09-23T12:03:12;18.80;97.70
37378;DHT22;23248;48.120;14.854;2022-09-23T12:15:49;19.10;95.30
37378;DHT22;23248;48.120;14.854;2022-09-23T12:18:28;19.20;95.50
37378;DHT22;23248;48.120;14.854;2022-09-23T12:21:06;19.30;94.90
37378;DHT22;23248;48.120;14.854;2022-09-23T12:26:20;19.40;94.10
37378;DHT22;23248;48.120;14.854;2022-09-23T12:28:46;19.30;95.00
37378;DHT22;23248;48.120;14.854;2022-09-23T12:31:23;19.30;94.40
37378;DHT22;23248;48.120;14.854;2022-09-23T12:33:56;19.40;93.80
37378;DHT22;23248;48.120;14.854;2022-09-23T12:36:24;19.60;93.90
37378;DHT22;23248;48.120;14.854;2022-09-23T12:41:18;19.70;94.00
37378;DHT22;23248;48.120;14.854;2022-09-23T12:43:55;19.70;94.20
37378;DHT22;23248;48.120;14.854;2022-09-23T12:46:22;19.80;94.30
37378;DHT22;23248;48.120;14.854;2022-09-23T12:51:27;19.90;93.20
37378;DHT22;23248;48.120;14.854;2022-09-23T12:53:54;19.90;93.90
37378;DHT22;23248;48.120;14.854;2022-09-23T12:56:24;20.20;93.10
37378;DHT22;23248;48.120;14.854;2022-09-23T13:01:35;20.30;92.50
37378;DHT22;23248;48.120;14.854;2022-09-23T13:04:01;20.10;93.20
37378;DHT22;23248;48.120;14.854;2022-09-23T13:06:56;20.10;92.40
37378;DHT22;23248;48.120;14.854;2022-09-23T13:09:29;20.10;93.40
37378;DHT22;23248;48.120;14.854;2022-09-23T13:11:56;20.30;92.70
37378;DHT22;23248;48.120;14.854;2022-09-23T13:14:24;20.30;92.40
37378;DHT22;23248;48.120;14.854;2022-09-23T13:16:50;20.40;92.00
37378;DHT22;23248;48.120;14.854;2022-09-23T13:24:23;20.70;91.60
37378;DHT22;23248;48.120;14.854;2022-09-23T13:29:28;20.80;90.60
37378;DHT22;23248;48.120;14.854;2022-09-23T13:31:57;20.90;91.10
37378;DHT22;23248;48.120;14.854;2022-09-23T13:34:24;21.20;90.80
37378;DHT22;23248;48.120;14.854;2022-09-23T13:36:51;21.30;90.10
37378;DHT22;23248;48.120;14.854;2022-09-23T13:39:25;21.40;90.10
37378;DHT22;23248;48.120;14.854;2022-09-23T13:41:52;21.50;90.30
37378;DHT22;23248;48.120;14.854;2022-09-23T13:44:20;21.60;90.60
37378;DHT22;23248;48.120;14.854;2022-09-23T13:46:47;21.60;90.50
37378;DHT22;23248;48.120;14.854;2022-09-23T13:49:19;21.70;90.20
37378;DHT22;23248;48.120;14.854;2022-09-23T13:51:45;21.80;90.20
37378;DHT22;23248;48.120;14.854;2022-09-23T13:56:54;21.60;88.50
37378;DHT22;23248;48.120;14.854;2022-09-23T14:01:48;21.70;89.50
37378;DHT22;23248;48.120;14.854;2022-09-23T14:04:24;21.80;87.30
37378;DHT22;23248;48.120;14.854;2022-09-23T14:06:51;21.80;88.80
37378;DHT22;23248;48.120;14.854;2022-09-23T14:09:19;21.80;89.10
37378;DHT22;23248;48.120;14.854;2022-09-23T14:11:46;21.80;88.20
37378;DHT22;23248;48.120;14.854;2022-09-23T14:14:14;21.90;89.30
37378;DHT22;23248;48.120;14.854;2022-09-23T14:16:40;21.80;87.40
37378;DHT22;23248;48.120;14.854;2022-09-23T14:19:07;21.70;89.20
37378;DHT22;23248;48.120;14.854;2022-09-23T14:21:36;21.60;88.10
37378;DHT22;23248;48.120;14.854;2022-09-23T14:29:40;21.40;87.70
37378;DHT22;23248;48.120;14.854;2022-09-23T14:34:39;21.30;88.20
37378;DHT22;23248;48.120;14.854;2022-09-23T14:40:33;21.30;88.80
37378;DHT22;23248;48.120;14.854;2022-09-23T14:43:16;21.20;89.60
37378;DHT22;23248;48.120;14.854;2022-09-23T14:45:46;21.10;89.40
37378;DHT22;23248;48.120;14.854;2022-09-23T14:48:24;21.00;88.90
37378;DHT22;23248;48.120;14.854;2022-09-23T14:50:51;21.00;88.60
37378;DHT22;23248;48.120;14.854;2022-09-23T14:56:37;20.90;89.10
37378;DHT22;23248;48.120;14.854;2022-09-23T14:58:40;20.80;90.00
37378;DHT22;23248;48.120;14.854;2022-09-23T15:01:22;20.60;90.00
37378;DHT22;23248;48.120;14.854;2022-09-23T15:03:48;20.60;90.70
37378;DHT22;23248;48.120;14.854;2022-09-23T15:06:13;20.60;91.60
37378;DHT22;23248;48.120;14.854;2022-09-23T15:08:39;20.50;92.30
37378;DHT22;23248;48.120;14.854;2022-09-23T15:11:06;20.40;92.90
37378;DHT22;23248;48.120;14.854;2022-09-23T15:13:33;20.20;91.80
37378;DHT22;23248;48.120;14.854;2022-09-23T15:16:01;20.20;94.00
37378;DHT22;23248;48.120;14.854;2022-09-23T15:18:32;20.10;93.40
37378;DHT22;23248;48.120;14.854;2022-09-23T15:21:08;19.90;94.30
37378;DHT22;23248;48.120;14.854;2022-09-23T15:26:04;19.70;94.40
37378;DHT22;23248;48.120;14.854;2022-09-23T15:28:30;19.70;94.60
37378;DHT22;23248;48.120;14.854;2022-09-23T15:30:56;19.50;93.80
37378;DHT22;23248;48.120;14.854;2022-09-23T15:33:21;19.40;93.20
37378;DHT22;23248;48.120;14.854;2022-09-23T15:35:52;19.20;94.70
37378;DHT22;23248;48.120;14.854;2022-09-23T15:38:21;19.20;94.00
37378;DHT22;23248;48.120;14.854;2022-09-23T15:40:47;19.00;93.60
37378;DHT22;23248;48.120;14.854;2022-09-23T15:43:17;18.70;95.30
37378;DHT22;23248;48.120;14.854;2022-09-23T15:45:47;18.50;97.70
37378;DHT22;23248;48.120;14.854;2022-09-23T15:48:16;18.40;98.50
37378;DHT22;23248;48.120;14.854;2022-09-23T15:50:42;18.10;97.90
37378;DHT22;23248;48.120;14.854;2022-09-23T15:53:13;18.10;97.90
37378;DHT22;23248;48.120;14.854;2022-09-23T15:55:41;18.00;98.60
37378;DHT22;23248;48.120;14.854;2022-09-23T15:58:06;17.90;98.80
37378;DHT22;23248;48.120;14.854;2022-09-23T16:00:32;17.70;99.90
37378;DHT22;23248;48.120;14.854;2022-09-23T16:03:00;17.50;99.90
37378;DHT22;23248;48.120;14.854;2022-09-23T16:05:30;17.40;99.90
37378;DHT22;23248;48.120;14.854;2022-09-23T16:07:59;17.20;99.90
37378;DHT22;23248;48.120;14.854;2022-09-23T16:10:25;16.90;99.90
37378;DHT22;23248;48.120;14.854;2022-09-23T16:12:51;16.80;99.90
37378;DHT22;23248;48.120;14.854;2022-09-23T16:15:18;16.60;99.90
37378;DHT22;23248;48.120;14.854;2022-09-23T16:17:45;16.40;99.90
37378;DHT22;23248;48.120;14.854;2022-09-23T16:20:11;16.20;99.90
37378;DHT22;23248;48.120;14.854;2022-09-23T16:22:37;16.00;99.90
37378;DHT22;23248;48.120;14.854;2022-09-23T16:25:03;15.90;99.90
37378;DHT22;23248;48.120;14.854;2022-09-23T16:27:30;15.70;99.90
37378;DHT22;23248;48.120;14.854;2022-09-23T16:29:55;15.60;99.90
37378;DHT22;23248;48.120;14.854;2022-09-23T16:32:21;15.50;99.90
37378;DHT22;23248;48.120;14.854;2022-09-23T16:34:48;15.30;99.90
37378;DHT22;23248;48.120;14.854;2022-09-23T16:37:13;15.10;99.90
37378;DHT22;23248;48.120;14.854;2022-09-23T16:39:41;15.10;99.90
37378;DHT22;23248;48.120;14.854;2022-09-23T16:42:06;15.00;99.90
37378;DHT22;23248;48.120;14.854;2022-09-23T16:44:32;14.90;99.90
37378;DHT22;23248;48.120;14.854;2022-09-23T16:46:58;14.80;99.90
37378;DHT22;23248;48.120;14.854;2022-09-23T16:49:23;14.60;99.90
37378;DHT22;23248;48.120;14.854;2022-09-23T16:51:49;14.50;99.90
37378;DHT22;23248;48.120;14.854;2022-09-23T16:54:15;14.30;99.90
37378;DHT22;23248;48.120;14.854;2022-09-23T16:56:42;14.20;99.90
37378;DHT22;23248;48.120;14.854;2022-09-23T16:59:08;14.10;99.90
37378;DHT22;23248;48.120;14.854;2022-09-23T17:01:34;13.90;99.90
37378;DHT22;23248;48.120;14.854;2022-09-23T17:04:18;13.80;99.90
37378;DHT22;23248;48.120;14.854;2022-09-23T17:06:46;13.70;99.90
37378;DHT22;23248;48.120;14.854;2022-09-23T17:09:15;13.60;99.90
37378;DHT22;23248;48.120;14.854;2022-09-23T17:11:40;13.50;99.90
37378;DHT22;23248;48.120;14.854;2022-09-23T17:14:08;13.50;99.90
37378;DHT22;23248;48.120;14.854;2022-09-23T17:16:34;13.40;99.90
37378;DHT22;23248;48.120;14.854;2022-09-23T17:19:07;13.30;99.90
37378;DHT22;23248;48.120;14.854;2022-09-23T17:21:33;13.20;99.90
37378;DHT22;23248;48.120;14.854;2022-09-23T17:23:59;13.10;99.90
37378;DHT22;23248;48.120;14.854;2022-09-23T17:26:24;12.90;99.90
37378;DHT22;23248;48.120;14.854;2022-09-23T17:28:51;12.80;99.90
37378;DHT22;23248;48.120;14.854;2022-09-23T17:31:19;12.80;99.90
37378;DHT22;23248;48.120;14.854;2022-09-23T17:33:47;12.60;99.90
37378;DHT22;23248;48.120;14.854;2022-09-23T17:36:14;12.50;99.90
37378;DHT22;23248;48.120;14.854;2022-09-23T17:38:44;12.50;99.90
37378;DHT22;23248;48.120;14.854;2022-09-23T17:41:11;12.40;99.90
37378;DHT22;23248;48.120;14.854;2022-09-23T17:43:37;12.20;99.90
37378;DHT22;23248;48.120;14.854;2022-09-23T17:46:10;12.10;99.90
37378;DHT22;23248;48.120;14.854;2022-09-23T17:48:39;12.10;99.90
37378;DHT22;23248;48.120;14.854;2022-09-23T17:53:39;11.90;99.90
37378;DHT22;23248;48.120;14.854;2022-09-23T17:56:07;11.80;99.90
37378;DHT22;23248;48.120;14.854;2022-09-23T17:58:34;11.70;99.90
37378;DHT22;23248;48.120;14.854;2022-09-23T18:01:01;11.60;99.90
37378;DHT22;23248;48.120;14.854;2022-09-23T18:03:29;11.50;99.90
37378;DHT22;23248;48.120;14.854;2022-09-23T18:06:23;11.40;99.90
37378;DHT22;23248;48.120;14.854;2022-09-23T18:08:50;11.30;99.90